sensor_id;sensor_type;location;lat;lon;timestamp;P1;durP1;ratioP1;P2;durP2;ratioP2
16310;SDS011;8264;48.510;8.872;2023-03-01T00:01:59;19.90;;;13.30;;
16310;SDS011;8264;48.510;8.872;2023-03-01T00:04:27;22.10;;;13.35;;
16310;SDS011;8264;48.510;8.872;2023-03-01T00:06:54;20.23;;;13.77;;
16310;SDS011;8264;48.510;8.872;2023-03-01T00:09:20;21.17;;;13.18;;
16310;SDS011;8264;48.510;8.872;2023-03-01T00:11:47;20.80;;;14.32;;
16310;SDS011;8264;48.510;8.872;2023-03-01T00:14:14;20.80;;;13.15;;
16310;SDS011;8264;48.510;8.872;2023-03-01T00:16:42;19.38;;;13.02;;
16310;SDS011;8264;48.510;8.872;2023-03-01T00:19:09;21.73;;;13.73;;
16310;SDS011;8264;48.510;8.872;2023-03-01T00:21:39;23.55;;;13.52;;
16310;SDS011;8264;48.510;8.872;2023-03-01T00:24:06;22.02;;;13.68;;
16310;SDS011;8264;48.510;8.872;2023-03-01T00:26:33;23.38;;;14.13;;
16310;SDS011;8264;48.510;8.872;2023-03-01T00:29:00;23.13;;;14.00;;
16310;SDS011;8264;48.510;8.872;2023-03-01T00:31:27;21.40;;;13.65;;
16310;SDS011;8264;48.510;8.872;2023-03-01T00:33:55;21.35;;;14.45;;
16310;SDS011;8264;48.510;8.872;2023-03-01T00:36:23;21.83;;;14.45;;
16310;SDS011;8264;48.510;8.872;2023-03-01T00:38:52;20.20;;;13.70;;
16310;SDS011;8264;48.510;8.872;2023-03-01T00:41:19;22.52;;;13.75;;
16310;SDS011;8264;48.510;8.872;2023-03-01T00:43:47;22.52;;;14.45;;
16310;SDS011;8264;48.510;8.872;2023-03-01T00:46:15;21.85;;;13.95;;
16310;SDS011;8264;48.510;8.872;2023-03-01T00:48:43;24.45;;;15.40;;
16310;SDS011;8264;48.510;8.872;2023-03-01T00:51:10;21.92;;;14.80;;
16310;SDS011;8264;48.510;8.872;2023-03-01T00:53:38;21.25;;;14.70;;
16310;SDS011;8264;48.510;8.872;2023-03-01T00:56:07;22.00;;;14.23;;
16310;SDS011;8264;48.510;8.872;2023-03-01T00:58:34;23.13;;;15.93;;
16310;SDS011;8264;48.510;8.872;2023-03-01T01:01:06;25.05;;;15.82;;
16310;SDS011;8264;48.510;8.872;2023-03-01T01:03:42;23.80;;;15.43;;
16310;SDS011;8264;48.510;8.872;2023-03-01T01:06:12;24.52;;;14.77;;
16310;SDS011;8264;48.510;8.872;2023-03-01T01:08:39;22.42;;;14.15;;
16310;SDS011;8264;48.510;8.872;2023-03-01T01:11:09;24.65;;;15.05;;
16310;SDS011;8264;48.510;8.872;2023-03-01T01:13:37;25.55;;;14.27;;
16310;SDS011;8264;48.510;8.872;2023-03-01T01:16:04;22.95;;;15.13;;
16310;SDS011;8264;48.510;8.872;2023-03-01T01:18:31;23.10;;;14.80;;
16310;SDS011;8264;48.510;8.872;2023-03-01T01:20:57;22.42;;;14.23;;
16310;SDS011;8264;48.510;8.872;2023-03-01T01:23:28;23.20;;;14.23;;
16310;SDS011;8264;48.510;8.872;2023-03-01T01:25:55;23.65;;;15.05;;
16310;SDS011;8264;48.510;8.872;2023-03-01T01:28:23;24.20;;;14.10;;
16310;SDS011;8264;48.510;8.872;2023-03-01T01:30:49;22.48;;;13.77;;
16310;SDS011;8264;48.510;8.872;2023-03-01T01:33:16;21.75;;;14.23;;
16310;SDS011;8264;48.510;8.872;2023-03-01T01:35:44;23.10;;;14.57;;
16310;SDS011;8264;48.510;8.872;2023-03-01T01:38:11;24.73;;;14.55;;
16310;SDS011;8264;48.510;8.872;2023-03-01T01:40:42;22.60;;;13.63;;
16310;SDS011;8264;48.510;8.872;2023-03-01T01:43:11;19.50;;;13.45;;
16310;SDS011;8264;48.510;8.872;2023-03-01T01:45:42;22.05;;;13.90;;
16310;SDS011;8264;48.510;8.872;2023-03-01T01:48:10;23.20;;;14.20;;
16310;SDS011;8264;48.510;8.872;2023-03-01T01:50:39;23.05;;;13.43;;
16310;SDS011;8264;48.510;8.872;2023-03-01T01:53:07;24.40;;;14.40;;
16310;SDS011;8264;48.510;8.872;2023-03-01T01:55:36;19.70;;;12.98;;
16310;SDS011;8264;48.510;8.872;2023-03-01T01:58:04;22.30;;;14.40;;
16310;SDS011;8264;48.510;8.872;2023-03-01T02:00:32;22.50;;;14.82;;
16310;SDS011;8264;48.510;8.872;2023-03-01T02:03:00;23.23;;;15.68;;
16310;SDS011;8264;48.510;8.872;2023-03-01T02:05:29;22.52;;;14.70;;
16310;SDS011;8264;48.510;8.872;2023-03-01T02:08:01;20.67;;;14.10;;
16310;SDS011;8264;48.510;8.872;2023-03-01T02:10:28;23.77;;;13.57;;
16310;SDS011;8264;48.510;8.872;2023-03-01T02:12:55;21.73;;;14.45;;
16310;SDS011;8264;48.510;8.872;2023-03-01T02:15:22;21.52;;;14.20;;
16310;SDS011;8264;48.510;8.872;2023-03-01T02:17:48;25.10;;;13.98;;
16310;SDS011;8264;48.510;8.872;2023-03-01T02:20:18;25.75;;;14.88;;
16310;SDS011;8264;48.510;8.872;2023-03-01T02:22:49;22.63;;;14.10;;
16310;SDS011;8264;48.510;8.872;2023-03-01T02:25:27;23.42;;;14.45;;
16310;SDS011;8264;48.510;8.872;2023-03-01T02:28:00;23.63;;;14.05;;
16310;SDS011;8264;48.510;8.872;2023-03-01T02:30:32;21.15;;;14.57;;
16310;SDS011;8264;48.510;8.872;2023-03-01T02:32:59;22.15;;;13.48;;
16310;SDS011;8264;48.510;8.872;2023-03-01T02:35:27;26.33;;;15.75;;
16310;SDS011;8264;48.510;8.872;2023-03-01T02:37:55;24.10;;;14.57;;
16310;SDS011;8264;48.510;8.872;2023-03-01T02:40:22;24.48;;;14.43;;
16310;SDS011;8264;48.510;8.872;2023-03-01T02:42:50;28.20;;;14.70;;
16310;SDS011;8264;48.510;8.872;2023-03-01T02:45:18;22.83;;;14.40;;
16310;SDS011;8264;48.510;8.872;2023-03-01T02:47:46;22.10;;;14.63;;
16310;SDS011;8264;48.510;8.872;2023-03-01T02:50:15;21.77;;;14.70;;
16310;SDS011;8264;48.510;8.872;2023-03-01T02:52:52;22.98;;;15.13;;
16310;SDS011;8264;48.510;8.872;2023-03-01T02:55:22;21.90;;;14.20;;
16310;SDS011;8264;48.510;8.872;2023-03-01T02:57:49;24.65;;;15.65;;
16310;SDS011;8264;48.510;8.872;2023-03-01T03:00:17;22.75;;;15.10;;
16310;SDS011;8264;48.510;8.872;2023-03-01T03:02:46;25.55;;;15.50;;
16310;SDS011;8264;48.510;8.872;2023-03-01T03:05:14;25.52;;;15.40;;
16310;SDS011;8264;48.510;8.872;2023-03-01T03:07:43;24.10;;;15.07;;
16310;SDS011;8264;48.510;8.872;2023-03-01T03:10:12;22.42;;;15.00;;
16310;SDS011;8264;48.510;8.872;2023-03-01T03:12:40;21.67;;;13.50;;
16310;SDS011;8264;48.510;8.872;2023-03-01T03:15:07;24.10;;;14.60;;
16310;SDS011;8264;48.510;8.872;2023-03-01T03:17:35;26.10;;;14.85;;
16310;SDS011;8264;48.510;8.872;2023-03-01T03:20:04;23.75;;;14.15;;
16310;SDS011;8264;48.510;8.872;2023-03-01T03:22:31;27.73;;;14.95;;
16310;SDS011;8264;48.510;8.872;2023-03-01T03:24:59;23.15;;;14.80;;
16310;SDS011;8264;48.510;8.872;2023-03-01T03:27:25;23.17;;;14.45;;
16310;SDS011;8264;48.510;8.872;2023-03-01T03:29:52;22.27;;;14.38;;
16310;SDS011;8264;48.510;8.872;2023-03-01T03:32:18;26.48;;;15.38;;
16310;SDS011;8264;48.510;8.872;2023-03-01T03:34:45;20.27;;;14.50;;
16310;SDS011;8264;48.510;8.872;2023-03-01T03:37:12;24.38;;;14.93;;
16310;SDS011;8264;48.510;8.872;2023-03-01T03:43:15;21.02;;;13.73;;
16310;SDS011;8264;48.510;8.872;2023-03-01T03:45:43;21.48;;;13.88;;
16310;SDS011;8264;48.510;8.872;2023-03-01T03:48:10;23.92;;;14.75;;
16310;SDS011;8264;48.510;8.872;2023-03-01T03:50:36;20.50;;;14.45;;
16310;SDS011;8264;48.510;8.872;2023-03-01T03:53:05;24.65;;;14.35;;
16310;SDS011;8264;48.510;8.872;2023-03-01T03:55:33;21.27;;;14.02;;
16310;SDS011;8264;48.510;8.872;2023-03-01T03:58:00;20.27;;;14.15;;
16310;SDS011;8264;48.510;8.872;2023-03-01T04:00:32;26.45;;;15.13;;
16310;SDS011;8264;48.510;8.872;2023-03-01T04:02:59;20.70;;;14.65;;
16310;SDS011;8264;48.510;8.872;2023-03-01T04:05:26;22.73;;;15.10;;
16310;SDS011;8264;48.510;8.872;2023-03-01T04:07:53;23.23;;;13.73;;
16310;SDS011;8264;48.510;8.872;2023-03-01T04:10:27;23.13;;;14.77;;
16310;SDS011;8264;48.510;8.872;2023-03-01T04:12:55;20.65;;;13.85;;
16310;SDS011;8264;48.510;8.872;2023-03-01T04:15:22;22.85;;;14.98;;
16310;SDS011;8264;48.510;8.872;2023-03-01T04:17:49;22.70;;;15.10;;
16310;SDS011;8264;48.510;8.872;2023-03-01T04:20:17;21.60;;;14.63;;
16310;SDS011;8264;48.510;8.872;2023-03-01T04:22:49;22.27;;;15.20;;
16310;SDS011;8264;48.510;8.872;2023-03-01T04:25:16;25.42;;;15.32;;
16310;SDS011;8264;48.510;8.872;2023-03-01T04:27:44;24.60;;;16.10;;
16310;SDS011;8264;48.510;8.872;2023-03-01T04:30:11;26.38;;;15.73;;
16310;SDS011;8264;48.510;8.872;2023-03-01T04:32:38;23.35;;;14.60;;
16310;SDS011;8264;48.510;8.872;2023-03-01T04:35:04;25.10;;;15.82;;
16310;SDS011;8264;48.510;8.872;2023-03-01T04:37:31;23.25;;;14.77;;
16310;SDS011;8264;48.510;8.872;2023-03-01T04:39:57;25.35;;;16.33;;
16310;SDS011;8264;48.510;8.872;2023-03-01T04:42:24;28.40;;;16.05;;
16310;SDS011;8264;48.510;8.872;2023-03-01T04:44:52;22.10;;;15.40;;
16310;SDS011;8264;48.510;8.872;2023-03-01T04:47:18;22.05;;;14.95;;
16310;SDS011;8264;48.510;8.872;2023-03-01T04:49:44;23.17;;;16.10;;
16310;SDS011;8264;48.510;8.872;2023-03-01T04:52:11;26.73;;;16.13;;
16310;SDS011;8264;48.510;8.872;2023-03-01T04:54:37;23.23;;;14.85;;
16310;SDS011;8264;48.510;8.872;2023-03-01T04:57:04;23.20;;;15.35;;
16310;SDS011;8264;48.510;8.872;2023-03-01T04:59:30;24.25;;;15.00;;
16310;SDS011;8264;48.510;8.872;2023-03-01T05:01:58;22.05;;;15.00;;
16310;SDS011;8264;48.510;8.872;2023-03-01T05:04:25;23.30;;;15.48;;
16310;SDS011;8264;48.510;8.872;2023-03-01T05:06:52;23.83;;;15.85;;
16310;SDS011;8264;48.510;8.872;2023-03-01T05:09:19;22.95;;;15.02;;
16310;SDS011;8264;48.510;8.872;2023-03-01T05:11:46;24.90;;;15.52;;
16310;SDS011;8264;48.510;8.872;2023-03-01T05:14:12;25.52;;;16.08;;
16310;SDS011;8264;48.510;8.872;2023-03-01T05:16:39;24.92;;;16.10;;
16310;SDS011;8264;48.510;8.872;2023-03-01T05:19:06;24.60;;;15.95;;
16310;SDS011;8264;48.510;8.872;2023-03-01T05:21:40;21.88;;;15.07;;
16310;SDS011;8264;48.510;8.872;2023-03-01T05:24:20;24.42;;;15.23;;
16310;SDS011;8264;48.510;8.872;2023-03-01T05:26:47;24.40;;;16.50;;
16310;SDS011;8264;48.510;8.872;2023-03-01T05:29:13;23.45;;;15.90;;
16310;SDS011;8264;48.510;8.872;2023-03-01T05:31:40;27.23;;;15.70;;
16310;SDS011;8264;48.510;8.872;2023-03-01T05:34:07;25.70;;;16.42;;
16310;SDS011;8264;48.510;8.872;2023-03-01T05:36:34;25.38;;;16.38;;
16310;SDS011;8264;48.510;8.872;2023-03-01T05:39:00;27.25;;;16.73;;
16310;SDS011;8264;48.510;8.872;2023-03-01T05:41:27;23.77;;;16.17;;
16310;SDS011;8264;48.510;8.872;2023-03-01T05:43:53;27.27;;;16.05;;
16310;SDS011;8264;48.510;8.872;2023-03-01T05:46:20;24.35;;;16.08;;
16310;SDS011;8264;48.510;8.872;2023-03-01T05:48:49;25.50;;;16.20;;
16310;SDS011;8264;48.510;8.872;2023-03-01T05:51:17;26.75;;;16.77;;
16310;SDS011;8264;48.510;8.872;2023-03-01T05:53:43;25.17;;;17.55;;
16310;SDS011;8264;48.510;8.872;2023-03-01T05:56:10;27.73;;;16.77;;
16310;SDS011;8264;48.510;8.872;2023-03-01T05:58:36;23.80;;;16.55;;
16310;SDS011;8264;48.510;8.872;2023-03-01T06:01:04;26.08;;;16.73;;
16310;SDS011;8264;48.510;8.872;2023-03-01T06:03:30;25.77;;;15.98;;
16310;SDS011;8264;48.510;8.872;2023-03-01T06:05:57;27.65;;;15.85;;
16310;SDS011;8264;48.510;8.872;2023-03-01T06:08:25;22.55;;;14.75;;
16310;SDS011;8264;48.510;8.872;2023-03-01T06:10:52;25.08;;;16.15;;
16310;SDS011;8264;48.510;8.872;2023-03-01T06:13:18;25.05;;;17.20;;
16310;SDS011;8264;48.510;8.872;2023-03-01T06:15:45;28.50;;;17.23;;
16310;SDS011;8264;48.510;8.872;2023-03-01T06:18:11;28.65;;;17.05;;
16310;SDS011;8264;48.510;8.872;2023-03-01T06:20:38;22.90;;;15.18;;
16310;SDS011;8264;48.510;8.872;2023-03-01T06:23:04;26.42;;;16.52;;
16310;SDS011;8264;48.510;8.872;2023-03-01T06:25:32;24.17;;;16.50;;
16310;SDS011;8264;48.510;8.872;2023-03-01T06:27:58;26.40;;;17.20;;
16310;SDS011;8264;48.510;8.872;2023-03-01T06:30:25;25.20;;;16.08;;
16310;SDS011;8264;48.510;8.872;2023-03-01T06:32:52;22.88;;;14.48;;
16310;SDS011;8264;48.510;8.872;2023-03-01T06:35:26;23.30;;;14.88;;
16310;SDS011;8264;48.510;8.872;2023-03-01T06:37:55;24.77;;;16.13;;
16310;SDS011;8264;48.510;8.872;2023-03-01T06:40:22;29.80;;;19.33;;
16310;SDS011;8264;48.510;8.872;2023-03-01T06:42:50;33.38;;;20.33;;
16310;SDS011;8264;48.510;8.872;2023-03-01T06:45:17;25.52;;;16.80;;
16310;SDS011;8264;48.510;8.872;2023-03-01T06:47:45;25.77;;;16.48;;
16310;SDS011;8264;48.510;8.872;2023-03-01T06:50:12;24.75;;;16.52;;
16310;SDS011;8264;48.510;8.872;2023-03-01T06:52:39;28.30;;;16.40;;
16310;SDS011;8264;48.510;8.872;2023-03-01T06:55:05;25.02;;;16.02;;
16310;SDS011;8264;48.510;8.872;2023-03-01T06:57:32;25.98;;;16.63;;
16310;SDS011;8264;48.510;8.872;2023-03-01T07:00:00;24.02;;;15.82;;
16310;SDS011;8264;48.510;8.872;2023-03-01T07:02:27;27.00;;;17.67;;
16310;SDS011;8264;48.510;8.872;2023-03-01T07:04:53;24.27;;;15.40;;
16310;SDS011;8264;48.510;8.872;2023-03-01T07:07:20;26.42;;;16.48;;
16310;SDS011;8264;48.510;8.872;2023-03-01T07:09:48;27.92;;;16.70;;
16310;SDS011;8264;48.510;8.872;2023-03-01T07:12:15;25.38;;;16.38;;
16310;SDS011;8264;48.510;8.872;2023-03-01T07:14:43;23.85;;;16.48;;
16310;SDS011;8264;48.510;8.872;2023-03-01T07:17:11;24.23;;;15.73;;
16310;SDS011;8264;48.510;8.872;2023-03-01T07:19:37;25.23;;;16.25;;
16310;SDS011;8264;48.510;8.872;2023-03-01T07:22:04;29.92;;;16.58;;
16310;SDS011;8264;48.510;8.872;2023-03-01T07:24:32;24.80;;;16.00;;
16310;SDS011;8264;48.510;8.872;2023-03-01T07:26:59;23.58;;;15.95;;
16310;SDS011;8264;48.510;8.872;2023-03-01T07:29:25;23.27;;;15.77;;
16310;SDS011;8264;48.510;8.872;2023-03-01T07:31:53;23.85;;;15.57;;
16310;SDS011;8264;48.510;8.872;2023-03-01T07:34:21;24.87;;;15.80;;
16310;SDS011;8264;48.510;8.872;2023-03-01T07:36:48;29.42;;;17.75;;
16310;SDS011;8264;48.510;8.872;2023-03-01T07:39:14;25.08;;;16.45;;
16310;SDS011;8264;48.510;8.872;2023-03-01T07:41:41;27.67;;;16.00;;
16310;SDS011;8264;48.510;8.872;2023-03-01T07:44:07;24.10;;;15.60;;
16310;SDS011;8264;48.510;8.872;2023-03-01T07:46:34;37.70;;;25.40;;
16310;SDS011;8264;48.510;8.872;2023-03-01T07:49:00;25.10;;;16.45;;
16310;SDS011;8264;48.510;8.872;2023-03-01T07:51:28;27.40;;;16.13;;
16310;SDS011;8264;48.510;8.872;2023-03-01T07:53:54;31.03;;;17.47;;
16310;SDS011;8264;48.510;8.872;2023-03-01T07:56:21;27.97;;;16.70;;
16310;SDS011;8264;48.510;8.872;2023-03-01T07:58:47;25.25;;;15.52;;
16310;SDS011;8264;48.510;8.872;2023-03-01T08:01:15;26.53;;;16.20;;
16310;SDS011;8264;48.510;8.872;2023-03-01T08:03:43;24.90;;;16.15;;
16310;SDS011;8264;48.510;8.872;2023-03-01T08:06:10;24.52;;;16.65;;
16310;SDS011;8264;48.510;8.872;2023-03-01T08:08:39;26.47;;;17.30;;
16310;SDS011;8264;48.510;8.872;2023-03-01T08:11:06;25.20;;;15.47;;
16310;SDS011;8264;48.510;8.872;2023-03-01T08:13:33;24.75;;;15.57;;
16310;SDS011;8264;48.510;8.872;2023-03-01T08:16:00;22.20;;;14.68;;
16310;SDS011;8264;48.510;8.872;2023-03-01T08:18:27;24.83;;;16.20;;
16310;SDS011;8264;48.510;8.872;2023-03-01T08:20:54;24.77;;;15.70;;
16310;SDS011;8264;48.510;8.872;2023-03-01T08:23:20;24.17;;;15.23;;
16310;SDS011;8264;48.510;8.872;2023-03-01T08:25:48;21.90;;;14.60;;
16310;SDS011;8264;48.510;8.872;2023-03-01T08:28:15;25.63;;;16.63;;
16310;SDS011;8264;48.510;8.872;2023-03-01T08:30:41;23.10;;;14.33;;
16310;SDS011;8264;48.510;8.872;2023-03-01T08:33:07;23.57;;;16.00;;
16310;SDS011;8264;48.510;8.872;2023-03-01T08:35:34;22.13;;;15.13;;
16310;SDS011;8264;48.510;8.872;2023-03-01T08:38:00;24.17;;;15.53;;
16310;SDS011;8264;48.510;8.872;2023-03-01T08:40:27;23.47;;;15.43;;
16310;SDS011;8264;48.510;8.872;2023-03-01T08:42:54;21.17;;;15.73;;
16310;SDS011;8264;48.510;8.872;2023-03-01T08:45:21;22.13;;;14.80;;
16310;SDS011;8264;48.510;8.872;2023-03-01T08:47:50;23.97;;;15.43;;
16310;SDS011;8264;48.510;8.872;2023-03-01T08:50:18;24.17;;;16.00;;
16310;SDS011;8264;48.510;8.872;2023-03-01T08:52:44;24.43;;;16.27;;
16310;SDS011;8264;48.510;8.872;2023-03-01T08:55:11;20.90;;;15.00;;
16310;SDS011;8264;48.510;8.872;2023-03-01T08:57:38;22.90;;;15.77;;
16310;SDS011;8264;48.510;8.872;2023-03-01T09:00:07;22.67;;;15.63;;
16310;SDS011;8264;48.510;8.872;2023-03-01T09:02:34;22.97;;;15.20;;
16310;SDS011;8264;48.510;8.872;2023-03-01T09:05:01;24.00;;;15.50;;
16310;SDS011;8264;48.510;8.872;2023-03-01T09:07:27;23.23;;;15.20;;
16310;SDS011;8264;48.510;8.872;2023-03-01T09:09:54;22.97;;;15.63;;
16310;SDS011;8264;48.510;8.872;2023-03-01T09:12:20;22.47;;;15.27;;
16310;SDS011;8264;48.510;8.872;2023-03-01T09:14:47;23.57;;;14.93;;
16310;SDS011;8264;48.510;8.872;2023-03-01T09:17:15;22.83;;;15.57;;
16310;SDS011;8264;48.510;8.872;2023-03-01T09:19:41;24.90;;;16.50;;
16310;SDS011;8264;48.510;8.872;2023-03-01T09:22:08;25.37;;;16.73;;
16310;SDS011;8264;48.510;8.872;2023-03-01T09:24:34;21.63;;;14.93;;
16310;SDS011;8264;48.510;8.872;2023-03-01T09:27:01;22.30;;;15.67;;
16310;SDS011;8264;48.510;8.872;2023-03-01T09:29:27;24.90;;;16.43;;
16310;SDS011;8264;48.510;8.872;2023-03-01T09:31:54;22.77;;;15.93;;
16310;SDS011;8264;48.510;8.872;2023-03-01T09:34:22;23.40;;;15.70;;
16310;SDS011;8264;48.510;8.872;2023-03-01T09:36:49;21.13;;;14.13;;
16310;SDS011;8264;48.510;8.872;2023-03-01T09:39:16;24.90;;;15.60;;
16310;SDS011;8264;48.510;8.872;2023-03-01T09:41:44;22.20;;;15.40;;
16310;SDS011;8264;48.510;8.872;2023-03-01T09:44:15;27.63;;;18.10;;
16310;SDS011;8264;48.510;8.872;2023-03-01T09:46:48;26.53;;;17.57;;
16310;SDS011;8264;48.510;8.872;2023-03-01T09:49:17;22.77;;;15.13;;
16310;SDS011;8264;48.510;8.872;2023-03-01T09:51:49;26.30;;;14.30;;
16310;SDS011;8264;48.510;8.872;2023-03-01T09:54:21;22.20;;;15.10;;
16310;SDS011;8264;48.510;8.872;2023-03-01T09:56:52;24.20;;;15.47;;
16310;SDS011;8264;48.510;8.872;2023-03-01T09:59:24;22.30;;;15.60;;
16310;SDS011;8264;48.510;8.872;2023-03-01T10:01:55;23.87;;;15.67;;
16310;SDS011;8264;48.510;8.872;2023-03-01T10:04:28;22.70;;;15.20;;
16310;SDS011;8264;48.510;8.872;2023-03-01T10:07:10;21.37;;;15.13;;
16310;SDS011;8264;48.510;8.872;2023-03-01T10:09:42;23.23;;;15.10;;
16310;SDS011;8264;48.510;8.872;2023-03-01T10:12:10;22.20;;;16.07;;
16310;SDS011;8264;48.510;8.872;2023-03-01T10:14:39;22.53;;;16.03;;
16310;SDS011;8264;48.510;8.872;2023-03-01T10:17:09;21.73;;;15.07;;
16310;SDS011;8264;48.510;8.872;2023-03-01T10:19:40;20.80;;;15.33;;
16310;SDS011;8264;48.510;8.872;2023-03-01T10:22:11;20.60;;;14.70;;
16310;SDS011;8264;48.510;8.872;2023-03-01T10:24:40;24.67;;;16.37;;
16310;SDS011;8264;48.510;8.872;2023-03-01T10:27:07;28.40;;;15.93;;
16310;SDS011;8264;48.510;8.872;2023-03-01T10:29:37;20.40;;;14.47;;
16310;SDS011;8264;48.510;8.872;2023-03-01T10:32:08;24.30;;;15.97;;
16310;SDS011;8264;48.510;8.872;2023-03-01T10:34:36;22.93;;;15.63;;
16310;SDS011;8264;48.510;8.872;2023-03-01T10:37:08;22.33;;;15.37;;
16310;SDS011;8264;48.510;8.872;2023-03-01T10:39:37;20.97;;;14.50;;
16310;SDS011;8264;48.510;8.872;2023-03-01T10:42:22;22.20;;;15.20;;
16310;SDS011;8264;48.510;8.872;2023-03-01T10:44:53;20.93;;;12.63;;
16310;SDS011;8264;48.510;8.872;2023-03-01T10:47:20;21.20;;;14.80;;
16310;SDS011;8264;48.510;8.872;2023-03-01T10:52:37;23.30;;;14.67;;
16310;SDS011;8264;48.510;8.872;2023-03-01T10:55:19;20.67;;;14.67;;
16310;SDS011;8264;48.510;8.872;2023-03-01T10:57:50;22.87;;;14.67;;
16310;SDS011;8264;48.510;8.872;2023-03-01T11:00:32;21.00;;;13.83;;
16310;SDS011;8264;48.510;8.872;2023-03-01T11:03:04;21.97;;;14.30;;
16310;SDS011;8264;48.510;8.872;2023-03-01T11:05:37;22.27;;;15.67;;
16310;SDS011;8264;48.510;8.872;2023-03-01T11:08:27;21.63;;;15.17;;
16310;SDS011;8264;48.510;8.872;2023-03-01T11:11:03;22.50;;;15.17;;
16310;SDS011;8264;48.510;8.872;2023-03-01T11:13:31;20.73;;;13.60;;
16310;SDS011;8264;48.510;8.872;2023-03-01T11:15:59;22.33;;;15.03;;
16310;SDS011;8264;48.510;8.872;2023-03-01T11:18:26;18.33;;;13.23;;
16310;SDS011;8264;48.510;8.872;2023-03-01T11:20:53;21.73;;;15.27;;
16310;SDS011;8264;48.510;8.872;2023-03-01T11:23:21;20.67;;;14.63;;
16310;SDS011;8264;48.510;8.872;2023-03-01T11:25:51;20.77;;;14.27;;
16310;SDS011;8264;48.510;8.872;2023-03-01T11:28:21;19.20;;;14.20;;
16310;SDS011;8264;48.510;8.872;2023-03-01T11:30:50;20.30;;;14.87;;
16310;SDS011;8264;48.510;8.872;2023-03-01T11:33:20;21.33;;;15.73;;
16310;SDS011;8264;48.510;8.872;2023-03-01T11:35:55;21.07;;;14.47;;
16310;SDS011;8264;48.510;8.872;2023-03-01T11:38:29;19.73;;;14.37;;
16310;SDS011;8264;48.510;8.872;2023-03-01T11:41:01;20.43;;;14.57;;
16310;SDS011;8264;48.510;8.872;2023-03-01T11:43:33;20.97;;;14.97;;
16310;SDS011;8264;48.510;8.872;2023-03-01T11:49:06;21.03;;;14.07;;
16310;SDS011;8264;48.510;8.872;2023-03-01T11:51:53;20.00;;;13.77;;
16310;SDS011;8264;48.510;8.872;2023-03-01T11:54:30;19.97;;;13.50;;
16310;SDS011;8264;48.510;8.872;2023-03-01T11:57:07;21.60;;;14.33;;
16310;SDS011;8264;48.510;8.872;2023-03-01T11:59:57;20.20;;;14.10;;
16310;SDS011;8264;48.510;8.872;2023-03-01T12:05:24;20.87;;;13.37;;
16310;SDS011;8264;48.510;8.872;2023-03-01T12:08:01;20.43;;;13.60;;
16310;SDS011;8264;48.510;8.872;2023-03-01T12:10:33;23.80;;;14.73;;
16310;SDS011;8264;48.510;8.872;2023-03-01T12:13:16;18.60;;;13.17;;
16310;SDS011;8264;48.510;8.872;2023-03-01T12:15:52;19.07;;;13.03;;
16310;SDS011;8264;48.510;8.872;2023-03-01T12:18:35;20.53;;;13.43;;
16310;SDS011;8264;48.510;8.872;2023-03-01T12:21:14;20.73;;;12.83;;
16310;SDS011;8264;48.510;8.872;2023-03-01T12:23:54;19.57;;;14.43;;
16310;SDS011;8264;48.510;8.872;2023-03-01T12:26:32;20.20;;;13.97;;
16310;SDS011;8264;48.510;8.872;2023-03-01T12:31:56;20.67;;;12.93;;
16310;SDS011;8264;48.510;8.872;2023-03-01T12:37:20;18.90;;;13.57;;
16310;SDS011;8264;48.510;8.872;2023-03-01T12:39:53;19.17;;;13.73;;
16310;SDS011;8264;48.510;8.872;2023-03-01T12:42:29;19.90;;;12.47;;
16310;SDS011;8264;48.510;8.872;2023-03-01T12:45:04;17.77;;;12.87;;
16310;SDS011;8264;48.510;8.872;2023-03-01T12:47:47;19.07;;;13.13;;
16310;SDS011;8264;48.510;8.872;2023-03-01T12:50:21;19.93;;;13.37;;
16310;SDS011;8264;48.510;8.872;2023-03-01T12:52:50;18.23;;;13.23;;
16310;SDS011;8264;48.510;8.872;2023-03-01T12:55:22;18.80;;;12.53;;
16310;SDS011;8264;48.510;8.872;2023-03-01T12:57:54;18.73;;;11.37;;
16310;SDS011;8264;48.510;8.872;2023-03-01T13:00:30;19.10;;;12.93;;
16310;SDS011;8264;48.510;8.872;2023-03-01T13:03:00;15.47;;;11.53;;
16310;SDS011;8264;48.510;8.872;2023-03-01T13:05:34;18.40;;;11.97;;
16310;SDS011;8264;48.510;8.872;2023-03-01T13:08:06;18.47;;;12.40;;
16310;SDS011;8264;48.510;8.872;2023-03-01T13:10:39;17.80;;;12.43;;
16310;SDS011;8264;48.510;8.872;2023-03-01T13:13:14;16.43;;;11.83;;
16310;SDS011;8264;48.510;8.872;2023-03-01T13:15:47;17.37;;;12.23;;
16310;SDS011;8264;48.510;8.872;2023-03-01T13:18:32;19.87;;;12.03;;
16310;SDS011;8264;48.510;8.872;2023-03-01T13:21:02;17.83;;;11.60;;
16310;SDS011;8264;48.510;8.872;2023-03-01T13:23:31;18.43;;;12.77;;
16310;SDS011;8264;48.510;8.872;2023-03-01T13:26:01;19.30;;;13.93;;
16310;SDS011;8264;48.510;8.872;2023-03-01T13:28:41;20.33;;;13.03;;
16310;SDS011;8264;48.510;8.872;2023-03-01T13:34:49;20.43;;;11.07;;
16310;SDS011;8264;48.510;8.872;2023-03-01T13:37:20;16.30;;;11.70;;
16310;SDS011;8264;48.510;8.872;2023-03-01T13:39:49;18.47;;;13.07;;
16310;SDS011;8264;48.510;8.872;2023-03-01T13:48:01;18.57;;;11.47;;
16310;SDS011;8264;48.510;8.872;2023-03-01T13:50:32;17.60;;;12.30;;
16310;SDS011;8264;48.510;8.872;2023-03-01T13:53:03;19.17;;;13.40;;
16310;SDS011;8264;48.510;8.872;2023-03-01T13:55:34;16.47;;;11.50;;
16310;SDS011;8264;48.510;8.872;2023-03-01T13:58:04;20.97;;;12.53;;
16310;SDS011;8264;48.510;8.872;2023-03-01T14:00:33;18.20;;;13.07;;
16310;SDS011;8264;48.510;8.872;2023-03-01T14:03:05;18.13;;;13.47;;
16310;SDS011;8264;48.510;8.872;2023-03-01T14:05:36;17.90;;;11.10;;
16310;SDS011;8264;48.510;8.872;2023-03-01T14:08:04;16.37;;;12.00;;
16310;SDS011;8264;48.510;8.872;2023-03-01T14:10:32;18.70;;;12.73;;
16310;SDS011;8264;48.510;8.872;2023-03-01T14:13:06;19.37;;;13.17;;
16310;SDS011;8264;48.510;8.872;2023-03-01T14:15:42;17.10;;;11.67;;
16310;SDS011;8264;48.510;8.872;2023-03-01T14:18:16;18.57;;;12.47;;
16310;SDS011;8264;48.510;8.872;2023-03-01T14:20:47;19.33;;;12.90;;
16310;SDS011;8264;48.510;8.872;2023-03-01T14:23:17;17.73;;;12.27;;
16310;SDS011;8264;48.510;8.872;2023-03-01T14:25:46;15.47;;;11.97;;
16310;SDS011;8264;48.510;8.872;2023-03-01T14:28:14;15.10;;;11.17;;
16310;SDS011;8264;48.510;8.872;2023-03-01T14:30:43;16.77;;;12.37;;
16310;SDS011;8264;48.510;8.872;2023-03-01T14:33:21;15.50;;;12.33;;
16310;SDS011;8264;48.510;8.872;2023-03-01T14:35:55;19.37;;;12.10;;
16310;SDS011;8264;48.510;8.872;2023-03-01T14:38:23;18.27;;;12.10;;
16310;SDS011;8264;48.510;8.872;2023-03-01T14:40:55;17.73;;;12.80;;
16310;SDS011;8264;48.510;8.872;2023-03-01T14:43:23;16.93;;;12.53;;
16310;SDS011;8264;48.510;8.872;2023-03-01T14:45:50;17.10;;;12.33;;
16310;SDS011;8264;48.510;8.872;2023-03-01T14:48:17;18.97;;;13.30;;
16310;SDS011;8264;48.510;8.872;2023-03-01T14:50:44;17.70;;;12.90;;
16310;SDS011;8264;48.510;8.872;2023-03-01T14:53:15;16.67;;;12.13;;
16310;SDS011;8264;48.510;8.872;2023-03-01T14:55:44;14.83;;;11.67;;
16310;SDS011;8264;48.510;8.872;2023-03-01T14:58:14;16.27;;;12.07;;
16310;SDS011;8264;48.510;8.872;2023-03-01T15:00:45;16.53;;;11.73;;
16310;SDS011;8264;48.510;8.872;2023-03-01T15:03:14;16.03;;;11.77;;
16310;SDS011;8264;48.510;8.872;2023-03-01T15:05:46;17.30;;;12.37;;
16310;SDS011;8264;48.510;8.872;2023-03-01T15:08:16;20.87;;;13.70;;
16310;SDS011;8264;48.510;8.872;2023-03-01T15:10:55;16.53;;;11.87;;
16310;SDS011;8264;48.510;8.872;2023-03-01T15:13:23;16.47;;;12.00;;